sensor_id;sensor_type;location;lat;lon;timestamp;P1;durP1;ratioP1;P2;durP2;ratioP2
289;SDS011;13193;48.874;9.086;2022-07-29T00:00:46;12.73;;;8.23;;
289;SDS011;13193;48.874;9.086;2022-07-29T00:03:12;17.77;;;8.27;;
289;SDS011;13193;48.874;9.086;2022-07-29T00:05:38;16.83;;;9.00;;
289;SDS011;13193;48.874;9.086;2022-07-29T00:08:07;9.50;;;7.20;;
289;SDS011;13193;48.874;9.086;2022-07-29T00:10:33;12.07;;;8.03;;
289;SDS011;13193;48.874;9.086;2022-07-29T00:12:58;11.20;;;7.90;;
289;SDS011;13193;48.874;9.086;2022-07-29T00:15:24;18.00;;;11.03;;
289;SDS011;13193;48.874;9.086;2022-07-29T00:17:50;13.70;;;8.90;;
289;SDS011;13193;48.874;9.086;2022-07-29T00:20:17;16.00;;;9.40;;
289;SDS011;13193;48.874;9.086;2022-07-29T00:22:43;15.40;;;10.10;;
289;SDS011;13193;48.874;9.086;2022-07-29T00:25:08;13.20;;;8.00;;
289;SDS011;13193;48.874;9.086;2022-07-29T00:27:35;18.57;;;8.73;;
289;SDS011;13193;48.874;9.086;2022-07-29T00:30:00;17.83;;;10.30;;
289;SDS011;13193;48.874;9.086;2022-07-29T00:32:27;15.53;;;8.63;;
289;SDS011;13193;48.874;9.086;2022-07-29T00:34:52;16.80;;;9.27;;
289;SDS011;13193;48.874;9.086;2022-07-29T00:37:37;14.63;;;9.67;;
289;SDS011;13193;48.874;9.086;2022-07-29T00:40:03;14.87;;;9.20;;
289;SDS011;13193;48.874;9.086;2022-07-29T00:42:29;13.53;;;9.50;;
289;SDS011;13193;48.874;9.086;2022-07-29T00:44:54;14.60;;;9.63;;
289;SDS011;13193;48.874;9.086;2022-07-29T00:47:20;16.23;;;9.63;;
289;SDS011;13193;48.874;9.086;2022-07-29T00:49:46;18.67;;;10.87;;
289;SDS011;13193;48.874;9.086;2022-07-29T00:52:12;14.63;;;9.80;;
289;SDS011;13193;48.874;9.086;2022-07-29T00:54:38;25.67;;;9.27;;
289;SDS011;13193;48.874;9.086;2022-07-29T00:57:06;17.80;;;10.47;;
289;SDS011;13193;48.874;9.086;2022-07-29T00:59:33;15.40;;;8.93;;
289;SDS011;13193;48.874;9.086;2022-07-29T01:01:59;16.00;;;10.67;;
289;SDS011;13193;48.874;9.086;2022-07-29T01:04:24;15.00;;;10.37;;
289;SDS011;13193;48.874;9.086;2022-07-29T01:06:51;14.90;;;10.00;;
289;SDS011;13193;48.874;9.086;2022-07-29T01:09:17;17.93;;;10.80;;
289;SDS011;13193;48.874;9.086;2022-07-29T01:11:44;20.60;;;9.37;;
289;SDS011;13193;48.874;9.086;2022-07-29T01:14:12;14.60;;;8.60;;
289;SDS011;13193;48.874;9.086;2022-07-29T01:17:12;14.13;;;9.50;;
289;SDS011;13193;48.874;9.086;2022-07-29T01:19:49;15.63;;;9.43;;
289;SDS011;13193;48.874;9.086;2022-07-29T01:23:22;16.03;;;9.73;;
289;SDS011;13193;48.874;9.086;2022-07-29T01:25:26;20.20;;;8.37;;
289;SDS011;13193;48.874;9.086;2022-07-29T01:31:10;14.07;;;8.80;;
289;SDS011;13193;48.874;9.086;2022-07-29T01:33:41;14.57;;;9.00;;
289;SDS011;13193;48.874;9.086;2022-07-29T01:36:16;12.80;;;7.93;;
289;SDS011;13193;48.874;9.086;2022-07-29T01:38:50;13.90;;;8.00;;
289;SDS011;13193;48.874;9.086;2022-07-29T01:41:29;13.20;;;9.10;;
289;SDS011;13193;48.874;9.086;2022-07-29T01:43:59;14.30;;;8.70;;
289;SDS011;13193;48.874;9.086;2022-07-29T01:46:52;11.50;;;8.03;;
289;SDS011;13193;48.874;9.086;2022-07-29T01:49:25;14.83;;;8.23;;
289;SDS011;13193;48.874;9.086;2022-07-29T01:52:07;15.57;;;9.47;;
289;SDS011;13193;48.874;9.086;2022-07-29T01:54:45;14.87;;;8.70;;
289;SDS011;13193;48.874;9.086;2022-07-29T01:57:20;10.70;;;7.40;;
289;SDS011;13193;48.874;9.086;2022-07-29T01:59:52;10.10;;;7.67;;
289;SDS011;13193;48.874;9.086;2022-07-29T02:02:19;12.37;;;8.17;;
289;SDS011;13193;48.874;9.086;2022-07-29T02:04:47;11.43;;;7.77;;
289;SDS011;13193;48.874;9.086;2022-07-29T02:07:15;10.67;;;7.60;;
289;SDS011;13193;48.874;9.086;2022-07-29T02:09:44;9.40;;;6.83;;
289;SDS011;13193;48.874;9.086;2022-07-29T02:12:12;10.97;;;7.13;;
289;SDS011;13193;48.874;9.086;2022-07-29T02:14:41;13.50;;;7.33;;
289;SDS011;13193;48.874;9.086;2022-07-29T02:17:10;11.90;;;7.10;;
289;SDS011;13193;48.874;9.086;2022-07-29T02:19:38;11.20;;;7.80;;
289;SDS011;13193;48.874;9.086;2022-07-29T02:22:05;12.30;;;7.47;;
289;SDS011;13193;48.874;9.086;2022-07-29T02:24:33;9.53;;;6.93;;
289;SDS011;13193;48.874;9.086;2022-07-29T02:27:02;17.67;;;8.30;;
289;SDS011;13193;48.874;9.086;2022-07-29T02:29:28;12.80;;;6.67;;
289;SDS011;13193;48.874;9.086;2022-07-29T02:31:56;9.33;;;6.70;;
289;SDS011;13193;48.874;9.086;2022-07-29T02:34:23;12.60;;;7.13;;
289;SDS011;13193;48.874;9.086;2022-07-29T02:36:50;12.83;;;7.50;;
289;SDS011;13193;48.874;9.086;2022-07-29T02:39:16;10.63;;;7.47;;
289;SDS011;13193;48.874;9.086;2022-07-29T02:41:47;10.13;;;7.57;;
289;SDS011;13193;48.874;9.086;2022-07-29T02:44:16;10.37;;;8.40;;
289;SDS011;13193;48.874;9.086;2022-07-29T02:46:53;12.60;;;8.33;;
289;SDS011;13193;48.874;9.086;2022-07-29T02:52:47;14.80;;;8.07;;
289;SDS011;13193;48.874;9.086;2022-07-29T03:00:46;13.77;;;8.67;;
289;SDS011;13193;48.874;9.086;2022-07-29T03:03:15;12.13;;;8.20;;
289;SDS011;13193;48.874;9.086;2022-07-29T03:05:42;13.57;;;8.23;;
289;SDS011;13193;48.874;9.086;2022-07-29T03:08:08;15.63;;;9.30;;
289;SDS011;13193;48.874;9.086;2022-07-29T03:10:37;18.47;;;10.93;;
289;SDS011;13193;48.874;9.086;2022-07-29T03:13:04;20.97;;;11.80;;
289;SDS011;13193;48.874;9.086;2022-07-29T03:15:31;16.03;;;11.43;;
289;SDS011;13193;48.874;9.086;2022-07-29T03:17:57;22.93;;;11.97;;
289;SDS011;13193;48.874;9.086;2022-07-29T03:20:24;25.03;;;10.30;;
289;SDS011;13193;48.874;9.086;2022-07-29T03:22:50;21.33;;;10.90;;
289;SDS011;13193;48.874;9.086;2022-07-29T03:25:17;19.73;;;12.77;;
289;SDS011;13193;48.874;9.086;2022-07-29T03:27:45;18.90;;;12.30;;
289;SDS011;13193;48.874;9.086;2022-07-29T03:30:11;16.77;;;11.33;;
289;SDS011;13193;48.874;9.086;2022-07-29T03:32:38;24.63;;;13.53;;
289;SDS011;13193;48.874;9.086;2022-07-29T03:35:05;21.20;;;12.93;;
289;SDS011;13193;48.874;9.086;2022-07-29T03:37:31;20.37;;;13.00;;
289;SDS011;13193;48.874;9.086;2022-07-29T03:39:58;23.53;;;14.20;;
289;SDS011;13193;48.874;9.086;2022-07-29T03:42:25;25.73;;;13.17;;
289;SDS011;13193;48.874;9.086;2022-07-29T03:44:55;22.07;;;12.77;;
289;SDS011;13193;48.874;9.086;2022-07-29T03:47:24;21.07;;;14.57;;
289;SDS011;13193;48.874;9.086;2022-07-29T03:49:55;18.30;;;11.70;;
289;SDS011;13193;48.874;9.086;2022-07-29T03:52:24;25.07;;;13.97;;
289;SDS011;13193;48.874;9.086;2022-07-29T03:54:50;17.97;;;11.80;;
289;SDS011;13193;48.874;9.086;2022-07-29T03:57:17;24.23;;;14.40;;
289;SDS011;13193;48.874;9.086;2022-07-29T03:59:45;21.50;;;13.27;;
289;SDS011;13193;48.874;9.086;2022-07-29T04:02:11;29.13;;;13.63;;
289;SDS011;13193;48.874;9.086;2022-07-29T04:04:37;19.70;;;12.87;;
289;SDS011;13193;48.874;9.086;2022-07-29T04:07:03;23.63;;;12.60;;
289;SDS011;13193;48.874;9.086;2022-07-29T04:09:29;18.73;;;12.07;;
289;SDS011;13193;48.874;9.086;2022-07-29T04:11:55;22.27;;;13.23;;
289;SDS011;13193;48.874;9.086;2022-07-29T04:14:21;19.10;;;12.23;;
289;SDS011;13193;48.874;9.086;2022-07-29T04:16:47;22.17;;;12.17;;
289;SDS011;13193;48.874;9.086;2022-07-29T04:19:12;21.40;;;11.97;;
289;SDS011;13193;48.874;9.086;2022-07-29T04:21:39;20.90;;;12.27;;
289;SDS011;13193;48.874;9.086;2022-07-29T04:24:05;19.23;;;11.57;;
289;SDS011;13193;48.874;9.086;2022-07-29T04:26:31;22.87;;;12.83;;
289;SDS011;13193;48.874;9.086;2022-07-29T04:28:58;17.40;;;12.10;;
289;SDS011;13193;48.874;9.086;2022-07-29T04:31:23;16.87;;;12.37;;
289;SDS011;13193;48.874;9.086;2022-07-29T04:33:49;22.63;;;13.00;;
289;SDS011;13193;48.874;9.086;2022-07-29T04:36:15;21.03;;;12.83;;
289;SDS011;13193;48.874;9.086;2022-07-29T04:38:40;19.30;;;13.10;;
289;SDS011;13193;48.874;9.086;2022-07-29T04:41:06;15.93;;;10.47;;
289;SDS011;13193;48.874;9.086;2022-07-29T04:43:33;16.90;;;10.27;;
289;SDS011;13193;48.874;9.086;2022-07-29T04:45:59;16.30;;;9.40;;
289;SDS011;13193;48.874;9.086;2022-07-29T04:48:25;10.73;;;7.90;;
289;SDS011;13193;48.874;9.086;2022-07-29T04:50:51;14.10;;;7.67;;
289;SDS011;13193;48.874;9.086;2022-07-29T04:53:17;12.47;;;7.73;;
289;SDS011;13193;48.874;9.086;2022-07-29T04:55:43;10.00;;;6.77;;
289;SDS011;13193;48.874;9.086;2022-07-29T04:58:09;10.90;;;6.73;;
289;SDS011;13193;48.874;9.086;2022-07-29T05:00:35;10.50;;;6.00;;
289;SDS011;13193;48.874;9.086;2022-07-29T05:03:01;8.53;;;5.73;;
289;SDS011;13193;48.874;9.086;2022-07-29T05:05:27;9.00;;;5.30;;
289;SDS011;13193;48.874;9.086;2022-07-29T05:07:52;7.17;;;3.90;;
289;SDS011;13193;48.874;9.086;2022-07-29T05:10:18;6.03;;;4.10;;
289;SDS011;13193;48.874;9.086;2022-07-29T05:12:44;7.23;;;3.83;;
289;SDS011;13193;48.874;9.086;2022-07-29T05:15:09;8.10;;;3.33;;
289;SDS011;13193;48.874;9.086;2022-07-29T05:17:42;7.47;;;3.27;;
289;SDS011;13193;48.874;9.086;2022-07-29T05:20:08;6.53;;;3.83;;
289;SDS011;13193;48.874;9.086;2022-07-29T05:22:34;6.13;;;3.30;;
289;SDS011;13193;48.874;9.086;2022-07-29T05:25:03;7.50;;;3.73;;
289;SDS011;13193;48.874;9.086;2022-07-29T05:27:35;12.63;;;3.30;;
289;SDS011;13193;48.874;9.086;2022-07-29T05:30:04;4.93;;;3.30;;
289;SDS011;13193;48.874;9.086;2022-07-29T05:32:33;4.27;;;2.80;;
289;SDS011;13193;48.874;9.086;2022-07-29T05:34:59;5.50;;;3.97;;
289;SDS011;13193;48.874;9.086;2022-07-29T05:37:26;8.93;;;3.53;;
289;SDS011;13193;48.874;9.086;2022-07-29T05:40:02;4.53;;;3.00;;
289;SDS011;13193;48.874;9.086;2022-07-29T05:42:29;5.63;;;3.33;;
289;SDS011;13193;48.874;9.086;2022-07-29T05:45:05;3.40;;;2.57;;
289;SDS011;13193;48.874;9.086;2022-07-29T05:47:34;7.87;;;2.93;;
289;SDS011;13193;48.874;9.086;2022-07-29T05:50:04;7.40;;;2.93;;
289;SDS011;13193;48.874;9.086;2022-07-29T05:52:41;5.87;;;3.10;;
289;SDS011;13193;48.874;9.086;2022-07-29T05:55:07;4.80;;;2.73;;
289;SDS011;13193;48.874;9.086;2022-07-29T05:57:36;12.60;;;3.27;;
289;SDS011;13193;48.874;9.086;2022-07-29T06:00:02;6.80;;;3.40;;
289;SDS011;13193;48.874;9.086;2022-07-29T06:02:28;4.90;;;2.57;;
289;SDS011;13193;48.874;9.086;2022-07-29T06:05:04;15.47;;;3.87;;
289;SDS011;13193;48.874;9.086;2022-07-29T06:07:43;8.30;;;3.80;;
289;SDS011;13193;48.874;9.086;2022-07-29T06:10:10;5.00;;;3.60;;
289;SDS011;13193;48.874;9.086;2022-07-29T06:12:36;7.90;;;3.87;;
289;SDS011;13193;48.874;9.086;2022-07-29T06:15:02;12.83;;;4.00;;
289;SDS011;13193;48.874;9.086;2022-07-29T06:17:28;5.60;;;3.57;;
289;SDS011;13193;48.874;9.086;2022-07-29T06:20:04;10.73;;;3.20;;
289;SDS011;13193;48.874;9.086;2022-07-29T06:22:30;4.93;;;3.07;;
289;SDS011;13193;48.874;9.086;2022-07-29T06:25:01;6.13;;;3.67;;
289;SDS011;13193;48.874;9.086;2022-07-29T06:27:34;5.83;;;3.83;;
289;SDS011;13193;48.874;9.086;2022-07-29T06:30:05;6.40;;;4.20;;
289;SDS011;13193;48.874;9.086;2022-07-29T06:32:32;8.80;;;4.50;;
289;SDS011;13193;48.874;9.086;2022-07-29T06:35:00;6.20;;;3.90;;
289;SDS011;13193;48.874;9.086;2022-07-29T06:37:28;6.60;;;4.70;;
289;SDS011;13193;48.874;9.086;2022-07-29T06:39:54;13.77;;;4.80;;
289;SDS011;13193;48.874;9.086;2022-07-29T06:42:41;6.37;;;4.07;;
289;SDS011;13193;48.874;9.086;2022-07-29T06:45:10;10.40;;;4.93;;
289;SDS011;13193;48.874;9.086;2022-07-29T06:47:36;13.67;;;4.70;;
289;SDS011;13193;48.874;9.086;2022-07-29T06:50:02;11.30;;;4.50;;
289;SDS011;13193;48.874;9.086;2022-07-29T06:52:28;15.70;;;4.30;;
289;SDS011;13193;48.874;9.086;2022-07-29T06:54:54;8.30;;;4.13;;
289;SDS011;13193;48.874;9.086;2022-07-29T06:57:24;9.63;;;4.03;;
289;SDS011;13193;48.874;9.086;2022-07-29T06:59:50;9.03;;;5.30;;
289;SDS011;13193;48.874;9.086;2022-07-29T07:02:15;7.43;;;4.37;;
289;SDS011;13193;48.874;9.086;2022-07-29T07:04:41;10.13;;;5.30;;
289;SDS011;13193;48.874;9.086;2022-07-29T07:07:06;10.90;;;5.03;;
289;SDS011;13193;48.874;9.086;2022-07-29T07:09:32;7.03;;;4.97;;
289;SDS011;13193;48.874;9.086;2022-07-29T07:12:00;10.83;;;7.17;;
289;SDS011;13193;48.874;9.086;2022-07-29T07:14:26;9.13;;;4.87;;
289;SDS011;13193;48.874;9.086;2022-07-29T07:19:25;7.63;;;4.47;;
289;SDS011;13193;48.874;9.086;2022-07-29T07:21:52;11.90;;;4.90;;
289;SDS011;13193;48.874;9.086;2022-07-29T07:24:18;9.43;;;5.40;;
289;SDS011;13193;48.874;9.086;2022-07-29T07:26:44;18.43;;;5.37;;
289;SDS011;13193;48.874;9.086;2022-07-29T07:29:09;7.77;;;5.50;;
289;SDS011;13193;48.874;9.086;2022-07-29T07:31:36;12.90;;;5.17;;
289;SDS011;13193;48.874;9.086;2022-07-29T07:34:02;7.30;;;4.13;;
289;SDS011;13193;48.874;9.086;2022-07-29T07:36:28;10.90;;;5.33;;
289;SDS011;13193;48.874;9.086;2022-07-29T07:38:54;5.63;;;3.80;;
289;SDS011;13193;48.874;9.086;2022-07-29T07:41:20;9.63;;;4.50;;
289;SDS011;13193;48.874;9.086;2022-07-29T07:43:46;10.37;;;5.03;;
289;SDS011;13193;48.874;9.086;2022-07-29T07:46:12;16.37;;;5.30;;
289;SDS011;13193;48.874;9.086;2022-07-29T07:48:37;10.93;;;4.30;;
289;SDS011;13193;48.874;9.086;2022-07-29T07:51:03;6.77;;;4.97;;
289;SDS011;13193;48.874;9.086;2022-07-29T07:53:28;10.30;;;4.77;;
289;SDS011;13193;48.874;9.086;2022-07-29T07:55:55;11.60;;;5.13;;
289;SDS011;13193;48.874;9.086;2022-07-29T07:58:20;12.20;;;4.90;;
289;SDS011;13193;48.874;9.086;2022-07-29T08:00:46;8.10;;;4.60;;
289;SDS011;13193;48.874;9.086;2022-07-29T08:03:12;5.83;;;4.30;;
289;SDS011;13193;48.874;9.086;2022-07-29T08:05:39;8.77;;;4.90;;
289;SDS011;13193;48.874;9.086;2022-07-29T08:08:05;12.30;;;4.73;;
289;SDS011;13193;48.874;9.086;2022-07-29T08:10:31;5.40;;;3.80;;
289;SDS011;13193;48.874;9.086;2022-07-29T08:13:16;6.17;;;4.57;;
289;SDS011;13193;48.874;9.086;2022-07-29T08:15:42;8.80;;;5.00;;
289;SDS011;13193;48.874;9.086;2022-07-29T08:18:09;9.90;;;5.20;;
289;SDS011;13193;48.874;9.086;2022-07-29T08:20:36;6.50;;;4.80;;
289;SDS011;13193;48.874;9.086;2022-07-29T08:23:03;6.53;;;5.03;;
289;SDS011;13193;48.874;9.086;2022-07-29T08:25:31;11.57;;;5.70;;
289;SDS011;13193;48.874;9.086;2022-07-29T08:27:58;12.13;;;4.90;;
289;SDS011;13193;48.874;9.086;2022-07-29T08:30:24;7.07;;;4.67;;
289;SDS011;13193;48.874;9.086;2022-07-29T08:32:49;6.90;;;5.10;;
289;SDS011;13193;48.874;9.086;2022-07-29T08:35:18;6.97;;;4.57;;
289;SDS011;13193;48.874;9.086;2022-07-29T08:37:44;8.73;;;6.20;;
289;SDS011;13193;48.874;9.086;2022-07-29T08:40:10;8.63;;;5.30;;
289;SDS011;13193;48.874;9.086;2022-07-29T08:42:36;7.60;;;5.17;;
289;SDS011;13193;48.874;9.086;2022-07-29T08:45:02;14.23;;;5.73;;
289;SDS011;13193;48.874;9.086;2022-07-29T08:47:29;10.97;;;6.10;;
289;SDS011;13193;48.874;9.086;2022-07-29T08:49:54;8.30;;;4.90;;
289;SDS011;13193;48.874;9.086;2022-07-29T08:52:27;10.33;;;5.10;;
289;SDS011;13193;48.874;9.086;2022-07-29T08:54:55;8.47;;;5.37;;
289;SDS011;13193;48.874;9.086;2022-07-29T08:57:21;13.73;;;5.70;;
289;SDS011;13193;48.874;9.086;2022-07-29T08:59:51;7.83;;;5.60;;
289;SDS011;13193;48.874;9.086;2022-07-29T09:02:19;13.33;;;5.63;;
289;SDS011;13193;48.874;9.086;2022-07-29T09:04:47;10.43;;;6.50;;
289;SDS011;13193;48.874;9.086;2022-07-29T09:07:17;8.93;;;6.20;;
289;SDS011;13193;48.874;9.086;2022-07-29T09:09:43;11.00;;;7.90;;
289;SDS011;13193;48.874;9.086;2022-07-29T09:12:10;8.70;;;6.70;;
289;SDS011;13193;48.874;9.086;2022-07-29T09:14:39;13.23;;;7.27;;
289;SDS011;13193;48.874;9.086;2022-07-29T09:17:05;11.60;;;7.17;;
289;SDS011;13193;48.874;9.086;2022-07-29T09:19:32;15.80;;;7.67;;
289;SDS011;13193;48.874;9.086;2022-07-29T09:22:00;10.97;;;8.17;;
289;SDS011;13193;48.874;9.086;2022-07-29T09:27:07;10.80;;;5.47;;
289;SDS011;13193;48.874;9.086;2022-07-29T09:30:02;13.37;;;6.00;;
289;SDS011;13193;48.874;9.086;2022-07-29T09:32:33;15.07;;;6.37;;
289;SDS011;13193;48.874;9.086;2022-07-29T09:35:22;10.73;;;5.33;;
289;SDS011;13193;48.874;9.086;2022-07-29T09:37:49;9.37;;;5.40;;
289;SDS011;13193;48.874;9.086;2022-07-29T09:40:19;12.33;;;6.00;;
289;SDS011;13193;48.874;9.086;2022-07-29T09:42:49;7.50;;;4.60;;
289;SDS011;13193;48.874;9.086;2022-07-29T09:45:29;8.27;;;6.13;;
289;SDS011;13193;48.874;9.086;2022-07-29T09:47:55;12.50;;;5.13;;
289;SDS011;13193;48.874;9.086;2022-07-29T09:50:35;11.00;;;5.00;;
289;SDS011;13193;48.874;9.086;2022-07-29T09:53:01;13.23;;;5.73;;
289;SDS011;13193;48.874;9.086;2022-07-29T09:55:27;14.37;;;5.47;;
289;SDS011;13193;48.874;9.086;2022-07-29T09:57:53;16.83;;;5.00;;
289;SDS011;13193;48.874;9.086;2022-07-29T10:00:41;19.13;;;5.03;;
289;SDS011;13193;48.874;9.086;2022-07-29T10:03:07;9.00;;;5.37;;
289;SDS011;13193;48.874;9.086;2022-07-29T10:05:33;10.10;;;5.90;;
289;SDS011;13193;48.874;9.086;2022-07-29T10:07:59;11.23;;;5.30;;
289;SDS011;13193;48.874;9.086;2022-07-29T10:10:25;17.30;;;5.00;;
289;SDS011;13193;48.874;9.086;2022-07-29T10:15:20;6.90;;;4.87;;
289;SDS011;13193;48.874;9.086;2022-07-29T10:17:51;15.00;;;6.73;;
289;SDS011;13193;48.874;9.086;2022-07-29T10:20:18;10.67;;;6.27;;
289;SDS011;13193;48.874;9.086;2022-07-29T10:22:44;9.03;;;5.67;;
289;SDS011;13193;48.874;9.086;2022-07-29T10:25:15;9.87;;;5.60;;
289;SDS011;13193;48.874;9.086;2022-07-29T10:27:44;18.93;;;7.20;;
289;SDS011;13193;48.874;9.086;2022-07-29T10:30:11;18.60;;;5.60;;
289;SDS011;13193;48.874;9.086;2022-07-29T10:43:55;18.40;;;4.83;;
289;SDS011;13193;48.874;9.086;2022-07-29T10:46:42;21.10;;;7.27;;
289;SDS011;13193;48.874;9.086;2022-07-29T10:49:09;8.77;;;5.73;;
289;SDS011;13193;48.874;9.086;2022-07-29T10:54:44;10.20;;;5.50;;
289;SDS011;13193;48.874;9.086;2022-07-29T10:57:13;10.20;;;4.73;;
289;SDS011;13193;48.874;9.086;2022-07-29T10:59:43;11.33;;;5.23;;
289;SDS011;13193;48.874;9.086;2022-07-29T11:07:33;8.57;;;4.47;;
289;SDS011;13193;48.874;9.086;2022-07-29T11:15:10;8.67;;;5.33;;
289;SDS011;13193;48.874;9.086;2022-07-29T11:23:22;9.47;;;4.30;;
289;SDS011;13193;48.874;9.086;2022-07-29T11:29:03;6.87;;;4.23;;
289;SDS011;13193;48.874;9.086;2022-07-29T11:31:46;9.10;;;4.30;;
289;SDS011;13193;48.874;9.086;2022-07-29T11:34:16;6.40;;;4.87;;
289;SDS011;13193;48.874;9.086;2022-07-29T11:44:55;12.10;;;4.97;;
289;SDS011;13193;48.874;9.086;2022-07-29T11:47:23;9.10;;;4.60;;
289;SDS011;13193;48.874;9.086;2022-07-29T11:49:50;7.40;;;4.83;;
289;SDS011;13193;48.874;9.086;2022-07-29T11:52:16;6.10;;;4.47;;
289;SDS011;13193;48.874;9.086;2022-07-29T11:54:43;6.50;;;4.50;;
289;SDS011;13193;48.874;9.086;2022-07-29T11:57:09;9.00;;;4.00;;
289;SDS011;13193;48.874;9.086;2022-07-29T11:59:39;16.73;;;4.90;;
289;SDS011;13193;48.874;9.086;2022-07-29T12:02:06;12.20;;;5.40;;
289;SDS011;13193;48.874;9.086;2022-07-29T12:04:48;10.67;;;4.77;;
289;SDS011;13193;48.874;9.086;2022-07-29T12:07:15;8.10;;;4.77;;
289;SDS011;13193;48.874;9.086;2022-07-29T12:09:41;7.57;;;5.37;;
289;SDS011;13193;48.874;9.086;2022-07-29T12:12:17;8.13;;;4.33;;
289;SDS011;13193;48.874;9.086;2022-07-29T12:14:44;8.73;;;4.47;;
289;SDS011;13193;48.874;9.086;2022-07-29T12:17:27;9.83;;;4.87;;
289;SDS011;13193;48.874;9.086;2022-07-29T12:19:58;15.23;;;4.90;;
289;SDS011;13193;48.874;9.086;2022-07-29T12:22:27;14.17;;;4.80;;
289;SDS011;13193;48.874;9.086;2022-07-29T12:25:06;6.67;;;4.40;;
289;SDS011;13193;48.874;9.086;2022-07-29T12:27:33;8.87;;;4.77;;
289;SDS011;13193;48.874;9.086;2022-07-29T12:30:04;15.47;;;5.77;;
289;SDS011;13193;48.874;9.086;2022-07-29T12:32:41;12.60;;;5.53;;
289;SDS011;13193;48.874;9.086;2022-07-29T12:35:18;11.87;;;4.23;;
289;SDS011;13193;48.874;9.086;2022-07-29T12:37:46;7.40;;;4.70;;
289;SDS011;13193;48.874;9.086;2022-07-29T12:40:13;10.00;;;4.33;;
289;SDS011;13193;48.874;9.086;2022-07-29T12:42:41;9.17;;;4.83;;
289;SDS011;13193;48.874;9.086;2022-07-29T12:45:29;19.90;;;3.93;;
289;SDS011;13193;48.874;9.086;2022-07-29T12:47:56;6.47;;;4.37;;
289;SDS011;13193;48.874;9.086;2022-07-29T12:50:22;6.43;;;3.60;;
289;SDS011;13193;48.874;9.086;2022-07-29T12:52:48;12.93;;;4.80;;
289;SDS011;13193;48.874;9.086;2022-07-29T12:55:14;6.40;;;4.53;;
289;SDS011;13193;48.874;9.086;2022-07-29T12:57:50;8.67;;;4.77;;
289;SDS011;13193;48.874;9.086;2022-07-29T13:00:23;7.73;;;4.03;;
289;SDS011;13193;48.874;9.086;2022-07-29T13:02:56;8.40;;;5.03;;
289;SDS011;13193;48.874;9.086;2022-07-29T13:05:23;18.03;;;4.53;;
289;SDS011;13193;48.874;9.086;2022-07-29T13:07:49;7.20;;;3.73;;
289;SDS011;13193;48.874;9.086;2022-07-29T13:10:19;8.20;;;4.20;;
289;SDS011;13193;48.874;9.086;2022-07-29T13:13:08;7.10;;;4.17;;
289;SDS011;13193;48.874;9.086;2022-07-29T13:15:46;6.50;;;4.87;;
289;SDS011;13193;48.874;9.086;2022-07-29T13:18:48;7.70;;;4.70;;
289;SDS011;13193;48.874;9.086;2022-07-29T13:21:15;6.80;;;3.70;;
289;SDS011;13193;48.874;9.086;2022-07-29T13:23:43;15.13;;;4.60;;
289;SDS011;13193;48.874;9.086;2022-07-29T13:26:09;9.90;;;5.03;;
289;SDS011;13193;48.874;9.086;2022-07-29T13:28:42;13.93;;;4.57;;
289;SDS011;13193;48.874;9.086;2022-07-29T13:31:09;10.53;;;4.00;;
289;SDS011;13193;48.874;9.086;2022-07-29T13:33:35;8.13;;;4.20;;
289;SDS011;13193;48.874;9.086;2022-07-29T13:36:00;7.80;;;3.80;;
289;SDS011;13193;48.874;9.086;2022-07-29T13:38:26;6.63;;;3.40;;
289;SDS011;13193;48.874;9.086;2022-07-29T13:40:52;5.17;;;3.27;;
289;SDS011;13193;48.874;9.086;2022-07-29T13:43:17;6.50;;;3.43;;
289;SDS011;13193;48.874;9.086;2022-07-29T13:45:43;5.60;;;3.23;;
289;SDS011;13193;48.874;9.086;2022-07-29T13:48:15;12.10;;;4.40;;
289;SDS011;13193;48.874;9.086;2022-07-29T13:50:40;6.17;;;3.50;;
289;SDS011;13193;48.874;9.086;2022-07-29T13:53:06;9.10;;;3.70;;
289;SDS011;13193;48.874;9.086;2022-07-29T13:55:32;7.27;;;3.63;;
289;SDS011;13193;48.874;9.086;2022-07-29T13:57:57;8.57;;;3.60;;
289;SDS011;13193;48.874;9.086;2022-07-29T14:00:23;4.87;;;3.80;;
289;SDS011;13193;48.874;9.086;2022-07-29T14:02:49;8.30;;;3.70;;
289;SDS011;13193;48.874;9.086;2022-07-29T14:05:15;7.67;;;4.17;;
289;SDS011;13193;48.874;9.086;2022-07-29T14:07:40;6.30;;;4.00;;
289;SDS011;13193;48.874;9.086;2022-07-29T14:10:06;4.53;;;3.23;;
289;SDS011;13193;48.874;9.086;2022-07-29T14:12:32;5.30;;;3.80;;
289;SDS011;13193;48.874;9.086;2022-07-29T14:14:58;5.30;;;3.80;;
289;SDS011;13193;48.874;9.086;2022-07-29T14:17:23;6.23;;;3.90;;
289;SDS011;13193;48.874;9.086;2022-07-29T14:19:49;5.80;;;4.63;;
289;SDS011;13193;48.874;9.086;2022-07-29T14:22:15;9.90;;;4.90;;
289;SDS011;13193;48.874;9.086;2022-07-29T14:24:40;5.67;;;3.77;;
289;SDS011;13193;48.874;9.086;2022-07-29T14:27:07;9.13;;;4.30;;
289;SDS011;13193;48.874;9.086;2022-07-29T14:29:32;6.33;;;4.00;;
289;SDS011;13193;48.874;9.086;2022-07-29T14:31:59;8.00;;;4.50;;
289;SDS011;13193;48.874;9.086;2022-07-29T14:34:24;7.20;;;3.80;;
289;SDS011;13193;48.874;9.086;2022-07-29T14:36:50;7.93;;;4.10;;
289;SDS011;13193;48.874;9.086;2022-07-29T14:39:16;7.80;;;4.03;;
289;SDS011;13193;48.874;9.086;2022-07-29T14:41:42;7.97;;;4.03;;
289;SDS011;13193;48.874;9.086;2022-07-29T14:44:08;8.13;;;3.80;;
289;SDS011;13193;48.874;9.086;2022-07-29T14:46:34;8.00;;;4.00;;
289;SDS011;13193;48.874;9.086;2022-07-29T14:49:00;6.10;;;4.27;;
289;SDS011;13193;48.874;9.086;2022-07-29T14:51:25;13.13;;;4.20;;
289;SDS011;13193;48.874;9.086;2022-07-29T14:53:51;7.10;;;4.00;;
289;SDS011;13193;48.874;9.086;2022-07-29T14:56:17;4.80;;;3.23;;
289;SDS011;13193;48.874;9.086;2022-07-29T14:58:42;8.67;;;3.67;;
289;SDS011;13193;48.874;9.086;2022-07-29T15:01:08;11.83;;;3.93;;
289;SDS011;13193;48.874;9.086;2022-07-29T15:03:34;5.33;;;2.63;;
289;SDS011;13193;48.874;9.086;2022-07-29T15:05:59;6.63;;;1.70;;
289;SDS011;13193;48.874;9.086;2022-07-29T15:08:25;9.80;;;2.30;;
289;SDS011;13193;48.874;9.086;2022-07-29T15:10:53;4.30;;;2.43;;
289;SDS011;13193;48.874;9.086;2022-07-29T15:13:18;6.30;;;1.93;;
289;SDS011;13193;48.874;9.086;2022-07-29T15:15:44;7.50;;;2.50;;
289;SDS011;13193;48.874;9.086;2022-07-29T15:18:10;3.60;;;1.93;;
289;SDS011;13193;48.874;9.086;2022-07-29T15:20:36;6.60;;;2.73;;
289;SDS011;13193;48.874;9.086;2022-07-29T15:23:01;5.50;;;2.60;;
289;SDS011;13193;48.874;9.086;2022-07-29T15:25:27;4.37;;;2.40;;
289;SDS011;13193;48.874;9.086;2022-07-29T15:27:53;6.93;;;2.80;;
289;SDS011;13193;48.874;9.086;2022-07-29T15:30:18;4.33;;;2.07;;
289;SDS011;13193;48.874;9.086;2022-07-29T15:32:44;3.37;;;2.10;;
289;SDS011;13193;48.874;9.086;2022-07-29T15:35:10;6.10;;;2.60;;
289;SDS011;13193;48.874;9.086;2022-07-29T15:37:36;5.33;;;2.67;;
289;SDS011;13193;48.874;9.086;2022-07-29T15:40:04;2.50;;;1.70;;
289;SDS011;13193;48.874;9.086;2022-07-29T15:42:31;4.50;;;2.40;;
289;SDS011;13193;48.874;9.086;2022-07-29T15:44:56;3.67;;;1.73;;
289;SDS011;13193;48.874;9.086;2022-07-29T15:47:22;4.83;;;2.20;;
289;SDS011;13193;48.874;9.086;2022-07-29T15:49:48;4.60;;;2.27;;
289;SDS011;13193;48.874;9.086;2022-07-29T15:52:14;4.43;;;2.10;;
289;SDS011;13193;48.874;9.086;2022-07-29T15:54:43;7.80;;;2.73;;
289;SDS011;13193;48.874;9.086;2022-07-29T15:57:09;5.50;;;2.00;;
289;SDS011;13193;48.874;9.086;2022-07-29T15:59:35;6.97;;;2.50;;
289;SDS011;13193;48.874;9.086;2022-07-29T16:02:00;4.23;;;2.63;;
289;SDS011;13193;48.874;9.086;2022-07-29T16:04:26;4.80;;;2.10;;
289;SDS011;13193;48.874;9.086;2022-07-29T16:06:52;9.80;;;3.60;;
289;SDS011;13193;48.874;9.086;2022-07-29T16:09:18;4.20;;;2.63;;
289;SDS011;13193;48.874;9.086;2022-07-29T16:11:44;6.50;;;2.80;;
289;SDS011;13193;48.874;9.086;2022-07-29T16:14:12;6.23;;;3.23;;